createdAt,value
2023-01-03T00:02:16.492Z,9.60
2023-01-03T00:04:49.779Z,9.60
2023-01-03T00:07:34.244Z,9.60
2023-01-03T00:10:06.083Z,9.60
2023-01-03T00:12:33.723Z,9.50
2023-01-03T00:15:07.738Z,9.50
2023-01-03T00:17:37.991Z,9.50
2023-01-03T00:20:10.482Z,9.50
2023-01-03T00:22:40.548Z,9.50
2023-01-03T00:25:11.467Z,9.50
2023-01-03T00:27:41.352Z,9.50
2023-01-03T00:30:15.204Z,9.40
2023-01-03T00:32:45.088Z,9.50
2023-01-03T00:35:14.964Z,9.50
2023-01-03T00:37:44.791Z,9.50
2023-01-03T00:40:15.368Z,9.50
2023-01-03T00:42:57.749Z,9.50
2023-01-03T00:45:35.065Z,9.50
2023-01-03T00:48:05.490Z,9.50
2023-01-03T00:50:35.408Z,9.50
2023-01-03T00:53:05.285Z,9.50
2023-01-03T00:55:37.741Z,9.50
2023-01-03T00:58:07.634Z,9.50
2023-01-03T01:00:40.094Z,9.60
2023-01-03T01:03:10.412Z,9.50
2023-01-03T01:05:40.373Z,9.50
2023-01-03T01:08:10.217Z,9.60
2023-01-03T01:11:01.805Z,9.60
2023-01-03T01:13:32.212Z,9.60
2023-01-03T01:16:08.460Z,9.60
2023-01-03T01:18:39.413Z,9.60
2023-01-03T01:21:10.905Z,9.60
2023-01-03T01:23:43.261Z,9.60
2023-01-03T01:26:17.985Z,9.60
2023-01-03T01:28:47.747Z,9.50
2023-01-03T01:31:23.465Z,9.50
2023-01-03T01:33:54.361Z,9.40
2023-01-03T01:36:27.021Z,9.40
2023-01-03T01:38:59.117Z,9.40
2023-01-03T01:41:43.564Z,9.30
2023-01-03T01:44:47.361Z,9.40
2023-01-03T01:47:31.027Z,9.40
2023-01-03T01:50:14.284Z,9.30
2023-01-03T01:52:49.145Z,9.30
2023-01-03T01:55:24.094Z,9.30
2023-01-03T01:57:54.524Z,9.30
2023-01-03T02:00:24.975Z,9.20
2023-01-03T02:02:58.405Z,9.20
2023-01-03T02:05:29.659Z,9.10
2023-01-03T02:08:00.679Z,9.00
2023-01-03T02:10:53.000Z,9.00
2023-01-03T02:13:33.342Z,8.90
2023-01-03T02:16:32.261Z,8.80
2023-01-03T02:19:28.043Z,8.80
2023-01-03T02:22:27.926Z,8.70
2023-01-03T02:25:36.519Z,8.70
2023-01-03T02:28:52.534Z,8.60
2023-01-03T02:31:31.047Z,8.50
2023-01-03T02:34:07.514Z,8.50
2023-01-03T02:36:50.151Z,8.40
2023-01-03T02:39:29.843Z,8.40
2023-01-03T02:42:17.905Z,8.40
2023-01-03T02:44:59.604Z,8.30
2023-01-03T02:47:33.266Z,8.30
2023-01-03T02:50:05.450Z,8.30
2023-01-03T02:52:35.815Z,8.20
2023-01-03T02:55:12.438Z,8.20
2023-01-03T02:57:47.961Z,8.10
2023-01-03T03:00:20.814Z,8.10
2023-01-03T03:02:56.769Z,8.00
2023-01-03T03:05:31.688Z,8.00
2023-01-03T03:08:01.579Z,8.00
2023-01-03T03:10:45.037Z,7.90
2023-01-03T03:13:27.586Z,7.90
2023-01-03T03:16:02.390Z,7.90
2023-01-03T03:18:39.022Z,7.90
2023-01-03T03:21:25.005Z,7.80
2023-01-03T03:24:09.903Z,7.80
2023-01-03T03:26:43.687Z,7.70
2023-01-03T03:29:15.788Z,7.70
2023-01-03T03:31:49.940Z,7.70
2023-01-03T03:34:27.351Z,7.70
2023-01-03T03:37:03.329Z,7.60
2023-01-03T03:39:47.907Z,7.60
2023-01-03T03:42:38.410Z,7.60
2023-01-03T03:45:18.994Z,7.60
2023-01-03T03:47:54.265Z,7.60
2023-01-03T03:50:34.036Z,7.60
2023-01-03T03:53:10.104Z,7.50
2023-01-03T03:55:43.940Z,7.50
2023-01-03T03:58:19.965Z,7.50
2023-01-03T04:00:54.953Z,7.40
2023-01-03T04:03:26.622Z,7.40
2023-01-03T04:06:04.973Z,7.40
2023-01-03T04:08:35.407Z,7.30
2023-01-03T04:11:08.150Z,7.30
2023-01-03T04:13:40.314Z,7.30
2023-01-03T04:16:10.759Z,7.20
2023-01-03T04:18:40.740Z,7.20
2023-01-03T04:21:18.887Z,7.20
2023-01-03T04:23:50.779Z,7.10
2023-01-03T04:26:20.793Z,7.00
2023-01-03T04:28:50.864Z,7.00
2023-01-03T04:31:20.787Z,7.10
2023-01-03T04:33:50.633Z,7.00
2023-01-03T04:36:23.334Z,7.00
2023-01-03T04:38:53.237Z,7.00
2023-01-03T04:41:23.170Z,6.90
2023-01-03T04:44:02.514Z,6.90
2023-01-03T04:46:33.856Z,6.90
2023-01-03T04:49:04.109Z,6.80
2023-01-03T04:51:37.227Z,6.80
2023-01-03T04:54:08.804Z,6.80
2023-01-03T04:56:40.971Z,6.70
2023-01-03T04:59:11.040Z,6.70
2023-01-03T05:01:52.308Z,6.60
2023-01-03T05:04:22.740Z,6.50
2023-01-03T05:06:55.934Z,6.60
2023-01-03T05:09:28.099Z,6.50
2023-01-03T05:11:58.646Z,6.50
2023-01-03T05:14:28.545Z,6.50
2023-01-03T05:16:58.438Z,6.50
2023-01-03T05:19:28.354Z,6.50
2023-01-03T05:22:13.319Z,6.40
2023-01-03T05:24:55.690Z,6.40
2023-01-03T05:27:26.253Z,6.40
2023-01-03T05:29:56.789Z,6.30
2023-01-03T05:32:28.139Z,6.30
2023-01-03T05:34:57.984Z,6.30
2023-01-03T05:37:30.413Z,6.20
2023-01-03T05:40:00.252Z,6.30
2023-01-03T05:42:30.348Z,6.30
2023-01-03T05:45:00.209Z,6.20
2023-01-03T05:47:30.134Z,6.20
2023-01-03T05:49:59.977Z,6.20
2023-01-03T05:52:32.405Z,6.20
2023-01-03T05:55:02.282Z,6.20
2023-01-03T05:57:35.511Z,6.10
2023-01-03T06:00:06.576Z,6.10
2023-01-03T06:02:36.569Z,6.10
2023-01-03T06:05:06.869Z,6.00
2023-01-03T06:07:39.304Z,6.00
2023-01-03T06:10:11.503Z,6.00
2023-01-03T06:12:41.334Z,5.90
2023-01-03T06:15:12.583Z,5.90
2023-01-03T06:17:54.913Z,5.90
2023-01-03T06:20:24.966Z,5.80
2023-01-03T06:22:58.642Z,5.80
2023-01-03T06:25:31.210Z,5.70
2023-01-03T06:28:01.101Z,5.70
2023-01-03T06:30:30.970Z,5.70
2023-01-03T06:33:00.848Z,5.70
2023-01-03T06:35:30.677Z,5.70
2023-01-03T06:38:03.112Z,5.70
2023-01-03T06:40:39.354Z,5.70
2023-01-03T06:43:12.298Z,5.60
2023-01-03T06:45:54.744Z,5.60
2023-01-03T06:48:37.171Z,5.60
2023-01-03T06:51:19.954Z,5.50
2023-01-03T06:53:52.535Z,5.50
2023-01-03T06:56:23.232Z,5.50
2023-01-03T06:58:53.067Z,5.50
2023-01-03T07:01:23.144Z,5.50
2023-01-03T07:03:53.203Z,5.40
2023-01-03T07:06:23.067Z,5.40
2023-01-03T07:08:55.492Z,5.30
2023-01-03T07:11:26.897Z,5.30
2023-01-03T07:14:00.393Z,5.30
2023-01-03T07:16:32.414Z,5.30
2023-01-03T07:19:02.982Z,5.30
2023-01-03T07:21:34.358Z,5.20
2023-01-03T07:24:09.367Z,5.20
2023-01-03T07:26:39.238Z,5.10
2023-01-03T07:29:12.535Z,5.10
2023-01-03T07:31:43.457Z,5.10
2023-01-03T07:34:13.365Z,5.10
2023-01-03T07:36:43.213Z,5.10
2023-01-03T07:39:15.631Z,5.10
2023-01-03T07:41:57.993Z,5.10
2023-01-03T07:44:27.838Z,5.10
2023-01-03T07:46:57.768Z,5.00
2023-01-03T07:49:27.692Z,5.00
2023-01-03T07:51:57.556Z,5.00
2023-01-03T07:54:29.986Z,5.10
2023-01-03T07:56:59.903Z,5.10
2023-01-03T07:59:30.288Z,5.00
2023-01-03T08:02:00.284Z,5.10
2023-01-03T08:04:30.243Z,5.10
2023-01-03T08:07:00.359Z,5.10
2023-01-03T08:09:45.334Z,5.10
2023-01-03T08:12:27.699Z,5.20
2023-01-03T08:14:57.544Z,5.20
2023-01-03T08:17:27.418Z,5.20
2023-01-03T08:19:57.252Z,5.20
2023-01-03T08:22:27.103Z,5.30
2023-01-03T08:24:59.562Z,5.30
2023-01-03T08:27:29.408Z,5.30
2023-01-03T08:29:59.231Z,5.30
2023-01-03T08:32:29.402Z,5.30
2023-01-03T08:35:00.113Z,5.30
2023-01-03T08:37:31.551Z,5.30
2023-01-03T08:40:08.063Z,5.30
2023-01-03T08:42:37.946Z,5.30
2023-01-03T08:45:13.719Z,5.40
2023-01-03T08:47:44.415Z,5.30
2023-01-03T08:50:15.802Z,5.40
2023-01-03T08:52:45.747Z,5.50
2023-01-03T08:55:18.261Z,5.50
2023-01-03T08:57:48.149Z,5.50
2023-01-03T09:00:19.207Z,5.60
2023-01-03T09:02:49.242Z,5.60
2023-01-03T09:05:19.353Z,5.70
2023-01-03T09:07:49.242Z,5.70
2023-01-03T09:10:21.779Z,5.70
2023-01-03T09:12:51.940Z,5.80
2023-01-03T09:15:22.422Z,5.80
2023-01-03T09:17:52.327Z,5.90
2023-01-03T09:20:22.341Z,5.90
2023-01-03T09:22:52.511Z,6.00
2023-01-03T09:25:24.966Z,6.00
2023-01-03T09:27:54.864Z,6.10
2023-01-03T09:30:24.738Z,6.10
2023-01-03T09:32:54.746Z,6.20
2023-01-03T09:35:24.657Z,6.20
2023-01-03T09:37:54.546Z,6.20
2023-01-03T09:40:27.522Z,6.30
2023-01-03T09:43:09.952Z,6.30
2023-01-03T09:45:40.253Z,6.30
2023-01-03T09:48:10.437Z,6.30
2023-01-03T09:51:15.911Z,6.40
2023-01-03T09:53:51.970Z,6.50
2023-01-03T09:56:37.252Z,6.60
2023-01-03T09:59:27.785Z,6.60
2023-01-03T10:02:24.717Z,6.70
2023-01-03T10:05:33.050Z,6.90
2023-01-03T10:08:40.739Z,6.90
2023-01-03T10:11:12.973Z,6.90
2023-01-03T10:14:08.093Z,7.00
2023-01-03T10:16:50.258Z,7.10
2023-01-03T10:19:45.682Z,7.10
2023-01-03T10:22:19.128Z,7.10
2023-01-03T10:24:51.609Z,7.30
2023-01-03T10:27:25.304Z,7.30
2023-01-03T10:30:03.963Z,7.20
2023-01-03T10:32:55.045Z,7.20
2023-01-03T10:35:26.919Z,7.00
2023-01-03T10:37:59.435Z,7.00
2023-01-03T10:40:38.269Z,7.00
2023-01-03T10:43:16.090Z,7.00
2023-01-03T10:46:00.862Z,7.00
2023-01-03T10:49:17.030Z,7.00
2023-01-03T10:51:42.280Z,7.00
2023-01-03T10:54:21.812Z,6.90
2023-01-03T10:56:52.428Z,7.00
2023-01-03T10:59:27.116Z,7.30
2023-01-03T11:02:05.505Z,7.50
2023-01-03T11:04:35.785Z,7.50
2023-01-03T11:07:16.915Z,7.40
2023-01-03T11:09:52.410Z,7.30
2023-01-03T11:12:30.483Z,7.50
2023-01-03T11:15:01.371Z,7.70
2023-01-03T11:17:33.846Z,7.80
2023-01-03T11:20:03.782Z,7.80
2023-01-03T11:22:41.910Z,7.80
2023-01-03T11:25:42.252Z,7.70
2023-01-03T11:28:59.329Z,7.70
2023-01-03T11:31:41.151Z,7.70
2023-01-03T11:35:11.578Z,7.70
2023-01-03T11:37:36.933Z,7.70
2023-01-03T11:40:17.876Z,7.60
2023-01-03T11:43:07.885Z,7.60
2023-01-03T11:46:10.623Z,7.50
2023-01-03T11:49:05.488Z,7.70
2023-01-03T11:51:47.777Z,7.70
2023-01-03T11:54:40.381Z,7.60
2023-01-03T11:57:26.169Z,7.60
2023-01-03T12:00:09.481Z,7.60
2023-01-03T12:03:03.992Z,7.50
2023-01-03T12:05:54.636Z,7.50
2023-01-03T12:09:03.591Z,7.40
2023-01-03T12:11:50.194Z,7.40
2023-01-03T12:14:24.896Z,7.60
2023-01-03T12:17:01.018Z,7.50
2023-01-03T12:19:38.667Z,7.40
2023-01-03T12:22:16.661Z,7.20
2023-01-03T12:25:00.724Z,7.10
2023-01-03T12:27:38.651Z,7.00
2023-01-03T12:30:25.681Z,7.10
2023-01-03T12:33:03.474Z,7.10
2023-01-03T12:35:40.886Z,7.20
2023-01-03T12:38:13.785Z,7.20
2023-01-03T12:40:56.497Z,7.00
2023-01-03T12:43:35.373Z,7.00
2023-01-03T12:46:13.260Z,7.00
2023-01-03T12:48:57.758Z,7.00
2023-01-03T12:51:28.253Z,7.00
2023-01-03T12:54:17.976Z,7.10
2023-01-03T12:57:21.788Z,7.20
2023-01-03T13:00:23.602Z,7.30
2023-01-03T13:02:59.769Z,7.40
2023-01-03T13:05:38.645Z,7.30
2023-01-03T13:08:15.844Z,7.20
2023-01-03T13:10:52.280Z,7.30
2023-01-03T13:13:25.177Z,7.30
2023-01-03T13:15:56.773Z,7.30
2023-01-03T13:18:47.498Z,7.40
2023-01-03T13:21:58.572Z,7.40
2023-01-03T13:24:46.105Z,7.40
2023-01-03T13:27:38.590Z,7.40
2023-01-03T13:30:27.951Z,7.30
2023-01-03T13:33:16.682Z,7.20
2023-01-03T13:36:02.814Z,7.20
2023-01-03T13:38:35.768Z,7.20
2023-01-03T13:41:18.247Z,7.10
2023-01-03T13:43:53.317Z,7.20
2023-01-03T13:46:30.332Z,7.30
2023-01-03T13:49:02.564Z,7.30
2023-01-03T13:51:52.367Z,7.30
2023-01-03T13:55:02.796Z,7.30
2023-01-03T13:57:54.269Z,7.30
2023-01-03T14:00:26.926Z,7.10
2023-01-03T14:03:38.389Z,7.00
2023-01-03T14:06:53.762Z,6.90
2023-01-03T14:09:47.049Z,6.90
2023-01-03T14:13:18.789Z,6.90
2023-01-03T14:15:50.345Z,6.90
2023-01-03T14:18:30.160Z,6.80
2023-01-03T14:21:02.049Z,6.80
2023-01-03T14:23:59.275Z,6.70
2023-01-03T14:26:22.368Z,6.70
2023-01-03T14:28:55.231Z,6.60
2023-01-03T14:31:29.549Z,6.60
2023-01-03T14:34:05.938Z,6.50
2023-01-03T14:36:48.613Z,6.50
2023-01-03T14:42:02.601Z,6.50
2023-01-03T14:44:32.823Z,6.50
2023-01-03T14:47:06.048Z,6.40
2023-01-03T14:49:45.738Z,6.40
2023-01-03T14:52:31.479Z,6.30
2023-01-03T14:55:07.550Z,6.30
2023-01-03T14:57:41.864Z,6.20
2023-01-03T15:00:24.235Z,6.20
2023-01-03T15:03:00.667Z,6.10
2023-01-03T15:05:38.408Z,6.10
2023-01-03T15:08:20.714Z,6.10
2023-01-03T15:10:54.512Z,6.10
2023-01-03T15:13:32.941Z,6.00
2023-01-03T15:16:05.708Z,6.00
2023-01-03T15:18:38.424Z,6.00
2023-01-03T15:21:16.263Z,5.80
2023-01-03T15:23:48.814Z,5.90
2023-01-03T15:26:25.759Z,5.80
2023-01-03T15:28:57.880Z,5.60
2023-01-03T15:31:39.111Z,5.60
2023-01-03T15:34:18.803Z,5.50
2023-01-03T15:37:04.759Z,5.50
2023-01-03T15:39:43.989Z,5.30
2023-01-03T15:42:50.283Z,5.20
2023-01-03T15:45:25.501Z,5.20
2023-01-03T15:48:00.175Z,5.10
2023-01-03T15:50:42.973Z,5.00
2023-01-03T15:53:27.101Z,5.00
2023-01-03T15:56:01.839Z,4.90
2023-01-03T15:58:32.638Z,4.90
2023-01-03T16:01:03.533Z,4.80
2023-01-03T16:03:36.473Z,4.90
2023-01-03T16:06:06.991Z,4.70
2023-01-03T16:08:42.545Z,4.60
2023-01-03T16:11:20.114Z,4.60
2023-01-03T16:13:55.553Z,4.60
2023-01-03T16:16:29.258Z,4.60
2023-01-03T16:18:59.758Z,4.50
2023-01-03T16:21:30.955Z,4.50
2023-01-03T16:24:03.382Z,4.40
2023-01-03T16:26:33.252Z,4.40
2023-01-03T16:29:03.089Z,4.30
2023-01-03T16:31:36.022Z,4.20
2023-01-03T16:34:09.053Z,4.20
2023-01-03T16:36:42.671Z,4.10
2023-01-03T16:39:19.533Z,4.00
2023-01-03T16:42:02.714Z,4.00
2023-01-03T16:44:32.553Z,4.00
2023-01-03T16:47:02.583Z,3.90
2023-01-03T16:49:35.309Z,3.80
2023-01-03T16:52:06.022Z,3.80
2023-01-03T16:54:38.666Z,3.70
2023-01-03T16:57:08.501Z,3.70
2023-01-03T16:59:38.377Z,3.70
2023-01-03T17:02:08.383Z,3.50
2023-01-03T17:04:38.426Z,3.50
2023-01-03T17:07:08.396Z,3.50
2023-01-03T17:09:40.857Z,3.60
2023-01-03T17:12:15.415Z,3.50
2023-01-03T17:14:45.288Z,3.40
2023-01-03T17:17:21.270Z,3.40
2023-01-03T17:20:07.784Z,3.30
2023-01-03T17:22:37.836Z,3.20
2023-01-03T17:25:13.788Z,3.10
2023-01-03T17:27:43.803Z,3.10
2023-01-03T17:30:23.055Z,3.10
2023-01-03T17:32:53.116Z,3.10
2023-01-03T17:35:23.025Z,3.00
2023-01-03T17:40:48.332Z,2.90
2023-01-03T17:43:23.119Z,2.90
2023-01-03T17:46:08.483Z,2.90
2023-01-03T17:48:50.672Z,2.90
2023-01-03T17:51:21.107Z,2.90
2023-01-03T17:53:52.033Z,2.80
2023-01-03T17:56:24.500Z,2.70
2023-01-03T17:58:56.457Z,2.60
2023-01-03T18:01:26.884Z,2.60
2023-01-03T18:03:56.828Z,2.60
2023-01-03T18:06:28.007Z,2.60
2023-01-03T18:08:58.449Z,2.60
2023-01-03T18:11:30.991Z,2.60
2023-01-03T18:14:00.877Z,2.50
2023-01-03T18:16:30.795Z,2.50
2023-01-03T18:19:00.712Z,2.40
2023-01-03T18:21:30.627Z,2.40
2023-01-03T18:24:04.745Z,2.40
2023-01-03T18:26:41.345Z,2.50
2023-01-03T18:29:16.299Z,2.30
2023-01-03T18:31:46.414Z,2.30
2023-01-03T18:34:17.032Z,2.30
2023-01-03T18:36:52.876Z,2.30
2023-01-03T18:39:29.848Z,2.30
2023-01-03T18:42:22.295Z,2.30
2023-01-03T18:44:52.147Z,2.30
2023-01-03T18:47:22.006Z,2.30
2023-01-03T18:49:52.000Z,2.30
2023-01-03T18:52:27.346Z,2.20
2023-01-03T18:54:57.565Z,2.20
2023-01-03T18:57:30.191Z,2.10
2023-01-03T19:00:00.199Z,2.20
2023-01-03T19:02:31.983Z,2.20
2023-01-03T19:05:01.898Z,2.10
2023-01-03T19:07:35.773Z,2.10
2023-01-03T19:10:07.806Z,2.10
2023-01-03T19:12:42.533Z,1.90
2023-01-03T19:15:18.844Z,1.80
2023-01-03T19:17:48.797Z,1.80
2023-01-03T19:20:24.903Z,1.80
2023-01-03T19:22:57.904Z,1.80
2023-01-03T19:25:31.376Z,1.90
2023-01-03T19:28:07.284Z,2.00
2023-01-03T19:30:41.441Z,2.00
2023-01-03T19:33:16.925Z,2.10
2023-01-03T19:35:47.090Z,2.10
2023-01-03T19:38:17.135Z,2.20
2023-01-03T19:40:48.091Z,2.20
2023-01-03T19:43:24.932Z,2.40
2023-01-03T19:45:54.842Z,2.40
2023-01-03T19:48:27.637Z,2.40
2023-01-03T19:50:57.717Z,2.50
2023-01-03T19:53:27.543Z,2.50
2023-01-03T19:55:57.470Z,2.60
2023-01-03T19:58:32.891Z,2.60
2023-01-03T20:01:03.274Z,2.60
2023-01-03T20:03:39.212Z,2.60
2023-01-03T20:06:12.915Z,2.70
2023-01-03T20:08:43.124Z,2.70
2023-01-03T20:11:19.837Z,2.80
2023-01-03T20:13:52.978Z,2.80
2023-01-03T20:16:23.795Z,2.70
2023-01-03T20:18:53.905Z,2.80
2023-01-03T20:21:28.001Z,2.70
2023-01-03T20:24:01.687Z,2.80
2023-01-03T20:26:34.406Z,2.80
2023-01-03T20:29:06.970Z,2.80
2023-01-03T20:31:37.092Z,2.90
2023-01-03T20:34:09.763Z,3.00
2023-01-03T20:36:43.992Z,3.00
2023-01-03T20:39:27.275Z,3.10
2023-01-03T20:42:03.284Z,3.10
2023-01-03T20:44:36.256Z,3.10
2023-01-03T20:47:07.440Z,3.10
2023-01-03T20:49:38.251Z,3.00
2023-01-03T20:52:08.372Z,3.10
2023-01-03T20:54:38.222Z,3.10
2023-01-03T20:57:16.679Z,3.10
2023-01-03T20:59:51.475Z,3.10
2023-01-03T21:02:21.342Z,3.10
2023-01-03T21:04:51.286Z,3.10
2023-01-03T21:07:51.442Z,3.20
2023-01-03T21:10:26.711Z,3.20
2023-01-03T21:12:56.617Z,3.20
2023-01-03T21:15:29.090Z,3.20
2023-01-03T21:17:58.945Z,3.30
2023-01-03T21:20:31.833Z,3.40
2023-01-03T21:23:02.183Z,3.40
2023-01-03T21:25:35.251Z,3.40
2023-01-03T21:28:06.444Z,3.40
2023-01-03T21:30:38.950Z,3.40
2023-01-03T21:33:09.013Z,3.50
2023-01-03T21:35:41.134Z,3.50
2023-01-03T21:38:12.597Z,3.50
2023-01-03T21:40:42.477Z,3.50
2023-01-03T21:43:13.195Z,3.60
2023-01-03T21:45:50.712Z,3.50
2023-01-03T21:48:21.570Z,3.60
2023-01-03T21:50:52.526Z,3.60
2023-01-03T21:53:24.502Z,3.60
2023-01-03T21:55:54.460Z,3.60
2023-01-03T21:58:24.846Z,3.60
2023-01-03T22:00:57.425Z,3.70
2023-01-03T22:03:39.855Z,3.70
2023-01-03T22:06:12.707Z,3.70
2023-01-03T22:08:43.403Z,3.70
2023-01-03T22:11:15.031Z,3.70
2023-01-03T22:13:45.457Z,3.80
2023-01-03T22:16:19.000Z,3.70
2023-01-03T22:18:48.876Z,3.80
2023-01-03T22:21:19.087Z,3.80
2023-01-03T22:23:48.992Z,3.80
2023-01-03T22:26:19.513Z,3.80
2023-01-03T22:28:50.597Z,3.80
2023-01-03T22:31:24.044Z,3.80
2023-01-03T22:33:54.059Z,3.80
2023-01-03T22:36:23.929Z,3.80
2023-01-03T22:38:55.639Z,3.80
2023-01-03T22:41:25.490Z,3.80
2023-01-03T22:43:55.961Z,3.80
2023-01-03T22:46:28.430Z,3.80
2023-01-03T22:48:58.753Z,3.80
2023-01-03T22:51:28.707Z,3.80
2023-01-03T22:53:58.617Z,3.80
2023-01-03T22:56:28.482Z,3.80
2023-01-03T22:58:58.377Z,3.90
2023-01-03T23:01:31.612Z,3.90
2023-01-03T23:04:03.782Z,3.90
2023-01-03T23:06:36.342Z,3.90
2023-01-03T23:09:07.515Z,3.90
2023-01-03T23:11:49.869Z,3.80
2023-01-03T23:14:22.608Z,3.90
2023-01-03T23:16:56.753Z,3.90
2023-01-03T23:19:29.256Z,3.90
2023-01-03T23:21:59.132Z,3.90
2023-01-03T23:24:28.979Z,3.90
2023-01-03T23:26:58.825Z,3.80
2023-01-03T23:29:28.677Z,3.90
2023-01-03T23:32:01.132Z,3.90
2023-01-03T23:34:31.024Z,3.80
2023-01-03T23:37:00.869Z,3.80
2023-01-03T23:39:30.964Z,3.80
2023-01-03T23:42:00.810Z,3.80
2023-01-03T23:44:32.839Z,3.70
2023-01-03T23:47:11.405Z,3.80
2023-01-03T23:49:42.336Z,3.80
2023-01-03T23:52:12.526Z,3.70
2023-01-03T23:54:42.373Z,3.80
2023-01-03T23:57:12.269Z,3.70
2023-01-03T23:59:42.116Z,3.60
